Weather observations for the past three days for
Cumberland, Greater Cumberland Regional Airport
Metric (Imperial)
Date Time (edt) Wind (kph) Vis. (km) Weather Sky Cond. Temperature (ºC) Relative Humidity Wind Chill (°C) Heat Index (°C) Pressure Precipitation (cm)
Air Dwpt 6 hour altimeter (cm) sea level (mb) 1 hr 3 hr 6 hr
Max. Min.
10 02:35 Calm 8.05 Fog/Mist BKN075 9 8.1 94% 75.92 0.0
10 02:15 Calm 16.09 Overcast OVC075 10.4 9.4 94% 75.97 0.0
10 01:55 N 9 16.09 Mostly Cloudy SCT044 BKN085 10.1 9.4 17.2 8.6 95% 75.97 0.0
10 01:35 N 9 8.05 Fog/Mist CLR 8.8 8.2 96% 8 76 0.0
10 01:15 Calm 11.27 Fair CLR 9.6 9 96% 75.95 0.0
10 00:55 Calm 11.27 Fair CLR 9.8 9.3 97% 75.95 0.0
10 00:35 NE 6 16.09 Fair CLR 10.2 9.7 97% 75.92 0.0
10 00:15 NE 9 11.27 Fog/Mist CLR 10.1 9.5 96% 75.92 0.0
09 23:55 Calm 6.44 Fog/Mist CLR 10.2 9.6 96% 75.9 0.0
09 23:35 Calm 11.27 Fair CLR 10.4 9.6 95% 75.9 0.0
09 23:15 Calm 16.09 Fair CLR 11.2 10.2 94% 75.9 0.0
09 22:55 Calm 11.27 Fair CLR 11.5 10.7 95% 75.9 0.0
09 22:35 Calm 16.09 Fair CLR 11.7 10.5 92% 75.9 0.0
09 22:15 Calm 16.09 Fair CLR 12 10.4 90% 75.87 0.0
09 21:55 N 6 16.09 Fair CLR 12.9 11.1 89% 75.87 0.0
09 21:35 N 7 16.09 Fair CLR 13.5 11.2 86% 75.84 0.0
09 21:15 NW 7 16.09 Fair CLR 12.9 10.9 88% 75.82 0.0
09 20:55 N 7 16.09 Fair CLR 14.8 11.4 80% 75.79 0.0
09 20:35 N 6 16.09 Fair CLR 15.4 11.4 77% 75.77 0.0
09 20:15 N 6 16.09 Fair CLR 15.6 11.2 75% 75.74 0.0
09 19:55 NW 7 16.09 Fair CLR 17.3 11.2 19.7 14.4 68% 75.72 0.0
09 19:35 Calm 16.09 Fair CLR 17.9 11.6 67% 75.74 0.0
09 19:15 Calm 16.09 Partly Cloudy SCT070 19 11.1 60% 75.72 0.0
09 18:55 SW 7 16.09 Mostly Cloudy BKN070 19.5 10.9 58% 75.74 0.0
09 18:35 SW 9 16.09 Partly Cloudy SCT070 19.3 10.9 58% 75.74 0.0
09 18:15 SW 7 16.09 Fair CLR 19 10.5 58% 75.74 0.0
09 17:55 Calm 16.09 Partly Cloudy SCT075 SCT090 18.8 10.6 59% 75.74 0.0
09 17:35 Calm 16.09 Overcast BKN075 OVC090 18.1 10.7 62% 75.77 0.0
09 17:15 SE 6 16.09 Overcast BKN075 OVC090 18.4 10.9 62% 75.77 0.0
09 16:55 Calm 16.09 Overcast BKN075 OVC090 17.2 10.6 65% 75.77 0.0
09 16:35 Calm 16.09 Overcast OVC075 16.7 10.3 66% 75.79 0.0
09 16:15 Calm 16.09 Overcast OVC075 16.7 10.1 65% 75.79 0.0
09 15:55 Calm 16.09 Overcast OVC085 16.3 9.5 64% 75.79 0.0
09 15:35 SE 7 16.09 Overcast OVC085 16.4 10.1 67% 75.82 0.0
09 15:15 Calm 16.09 Overcast OVC085 15.3 10.1 71% 75.84 0.0
09 14:55 Calm 16.09 Overcast OVC085 15.1 10.6 75% 75.84 0.0
09 14:35 E 6 16.09 Overcast OVC085 15.2 10.8 75% 75.84 0.0
09 14:15 Calm 16.09 Overcast OVC095 14.7 10.2 75% 75.84 0.0
09 13:55 Calm 16.09 Mostly Cloudy BKN095 BKN110 14.6 9.9 14.7 10.5 74% 75.84 0.0 0.13
09 13:35 S 6 16.09 Overcast OVC095 14.2 11 81% 75.87 0.0
09 13:15 Calm 16.09 Overcast OVC095 13.6 11.1 85% 75.87 0.0
09 12:55 Calm 16.09 Mostly Cloudy SCT007 BKN100 BKN120 13.2 11.1 87% 75.9 0.0
09 12:35 Calm 16.09 Mostly Cloudy SCT007 SCT055 BKN110 13.4 11.1 86% 75.9 0.0
09 12:15 Calm 16.09 Light Rain SCT055 BKN075 12.7 11.1 90% 75.92 0.0
09 11:55 Calm 16.09 Light Rain BKN075 OVC085 12.4 10.7 89% 75.92 0.0
09 11:35 Calm 16.09 Overcast OVC085 12.1 10.4 89% 75.95 0.0
09 11:15 S 6 16.09 Overcast OVC085 11.9 10.4 91% 75.95 0.0
09 10:55 Calm 16.09 Overcast OVC085 11.9 10.3 90% 75.95 0.0 0.03 0.13
09 10:35 Calm 16.09 Light Rain OVC075 11.6 9.9 89% 75.95 0.0 0.03
09 10:15 Calm 16.09 Light Rain OVC065 11 9.7 92% 75.95 0.0 0.03
09 09:55 Calm 16.09 Light Rain OVC065 10.8 9.5 92% 75.97 0.0 0.08
09 09:35 S 6 11.27 Light Rain OVC065 10.8 9.1 89% 75.97 0.0 0.05
09 09:15 Calm 11.27 Light Rain OVC065 10.5 8.9 90% 75.97 0.0 0.03
09 08:55 S 6 16.09 Light Rain OVC065 10.7 8.5 86% 75.97 0.0 0.03
09 08:35 SW 6 16.09 Light Rain BKN065 OVC075 11.2 7.9 80% 75.95 0.0
09 08:15 S 6 16.09 Light Rain OVC080 12.5 8.2 75% 75.95 0.0
09 07:55 Calm 16.09 Overcast OVC080 13.4 7.6 13.9 10.5 68% 75.95 0.0
09 07:35 SE 6 16.09 Overcast OVC080 13.1 7.4 69% 75.95 0.0
09 07:15 SW 6 16.09 Overcast OVC080 13.6 7 65% 75.92 0.0
09 06:55 E 7 16.09 Overcast BKN080 OVC090 12.5 7.1 70% 75.92 0.0
09 06:35 N 7 16.09 Overcast OVC100 11.3 7.4 77% 75.92 0.0
09 06:15 Calm 16.09 Overcast OVC100 11 7.7 80% 75.92 0.0
09 05:55 Calm 16.09 Overcast OVC090 10.9 8.1 83% 75.92 0.0
09 05:35 Calm 16.09 Overcast OVC080 10.9 7.6 80% 75.9 0.0
09 05:15 Calm 16.09 Overcast OVC080 11 7.6 80% 75.9 0.0
09 04:55 Calm 16.09 Overcast OVC080 10.6 7.3 80% 75.92 0.0
09 04:35 Calm 16.09 Mostly Cloudy BKN090 BKN120 10.9 7.3 79% 75.92 0.0
09 04:15 Calm 16.09 Overcast OVC090 11.4 7 75% 75.9 0.0
09 03:55 Calm 16.09 Overcast OVC090 10.8 7.5 80% 75.9 0.0
09 03:35 Calm 16.09 Overcast OVC090 10.9 7.3 79% 75.9 0.0
09 03:15 Calm 16.09 Overcast OVC100 11 7.3 78% 75.92 0.0
09 02:55 Calm 16.09 Overcast OVC100 11.3 6.9 75% 75.9 0.0
09 02:35 Calm 16.09 Overcast OVC100 11.7 7 73% 75.92 0.0
09 02:15 Calm 16.09 Overcast OVC110 12 6.8 71% 75.92 0.0
09 01:55 Calm 16.09 Mostly Cloudy BKN110 11.7 7.6 18.3 11.6 76% 75.92 0.0
09 01:35 Calm 16.09 Mostly Cloudy BKN110 12.2 7.4 73% 75.95 0.0
09 01:15 Calm 16.09 Overcast OVC100 12.2 6.5 68% 75.95 0.0
09 00:55 Calm 16.09 Overcast OVC100 12.6 6.3 66% 75.95 0.0
09 00:35 Calm 16.09 Overcast OVC100 12.8 6.9 68% 75.95 0.0
09 00:15 Calm 16.09 Overcast OVC100 12.7 6.6 67% 75.95 0.0
08 23:55 Calm 16.09 Overcast OVC100 12.9 6.3 64% 75.95 0.0
08 23:35 N 7 16.09 Overcast OVC100 12.8 6.6 66% 75.95 0.0
08 23:15 NE 6 16.09 Overcast OVC100 13.5 6.3 62% 75.97 0.0
08 22:55 NW 7 16.09 Overcast OVC100 14.1 5.7 57% 75.97 0.0
08 22:35 Calm 16.09 Overcast OVC100 14.2 5.6 56% 75.97 0.0
08 22:15 Calm 16.09 Overcast OVC100 14 6.2 60% 75.97 0.0
08 21:55 Calm 16.09 Overcast BKN100 OVC120 14.2 5.9 58% 75.97 0.0
08 21:35 N 7 16.09 Overcast OVC120 14.7 6.3 57% 75.95 0.0
08 21:15 N 6 16.09 Partly Cloudy SCT120 14.9 5.5 54% 75.95 0.0
08 20:55 N 9 16.09 Partly Cloudy SCT110 15.3 5.5 52% 75.92 0.0
08 20:35 W 7 16.09 Partly Cloudy SCT110 17.3 3.3 39% 75.92 0.0
08 20:15 W 7 16.09 Mostly Cloudy BKN120 17.6 3.6 40% 75.92 0.0
08 19:55 SW 6 16.09 Overcast OVC110 18.3 3.1 19.8 17.4 37% 75.92 0.0
08 19:35 SW 15 16.09 Mostly Cloudy BKN120 18.1 3.2 37% 75.9 0.0
08 18:55 S 6 16.09 Partly Cloudy SCT085 SCT110 19.4 4.2 37% 75.9 0.0
08 18:35 Calm 16.09 Mostly Cloudy SCT075 BKN110 19 3.2 35% 75.92 0.0
08 18:15 Calm 16.09 Partly Cloudy SCT075 SCT120 19.5 3.4 35% 75.92 0.0
08 17:55 Calm 16.09 Mostly Cloudy SCT085 BKN110 18.6 3.6 37% 75.92 0.0
08 17:35 NW 7 16.09 Overcast BKN085 OVC110 18.8 3.2 36% 75.95 0.0
08 17:15 W 9 16.09 Overcast OVC085 18.4 3.4 37% 75.97 0.0
08 16:55 W 13 16.09 Overcast OVC095 18.4 2.8 36% 75.97 0.0
08 16:35 W 20 16.09 Overcast OVC095 18.5 2.8 35% 76 0.0
08 16:15 W 13 16.09 Overcast OVC095 18 2.3 35% 76 0.0
08 15:35 W 11 16.09 Overcast OVC085 17.8 2.3 36% 76.02 0.0
08 15:15 SW 22 G 37 16.09 Overcast SCT075 OVC095 17.7 1.6 34% 76.02 0.0
08 14:55 SW 26 G 37 16.09 Overcast SCT075 OVC095 18.3 1.9 34% 76.02 0.0
08 14:35 W 24 G 35 16.09 Overcast OVC095 18.2 1.3 32% 76.05 0.0
08 14:15 W 26 G 33 16.09 Overcast BKN080 OVC095 18.2 1.3 32% 76.07 0.0
08 13:35 SW 28 G 39 16.09 Overcast BKN095 OVC120 18.9 0.9 30% 76.07 0.0
08 13:15 W 20 16.09 Overcast OVC085 18.5 1.2 32% 76.1 0.0
08 12:55 SW 22 G 31 16.09 Mostly Cloudy BKN075 BKN120 18.7 0.7 30% 76.1 0.0
08 12:35 W 20 16.09 Mostly Cloudy SCT075 SCT095 BKN120 18.6 1.3 32% 76.12 0.0
08 12:15 SW 19 G 39 16.09 Mostly Cloudy SCT075 BKN090 BKN110 18.5 0.6 30% 76.12 0.0
08 11:55 W 19 G 43 16.09 Mostly Cloudy SCT075 BKN100 18 1 32% 76.15 0.0
08 11:35 W 22 G 43 16.09 Mostly Cloudy BKN075 BKN085 17.7 0.5 32% 76.15 0.0
08 11:15 W 30 G 39 16.09 Mostly Cloudy BKN075 BKN095 17.5 1.2 34% 76.15 0.0
08 10:55 NW 15 G 33 16.09 Mostly Cloudy SCT075 BKN095 17.3 1.4 34% 76.17 0.0
08 10:35 W 17 16.09 Mostly Cloudy SCT075 BKN095 15.2 0.8 38% 76.17 0.0
08 10:15 SW 15 16.09 Partly Cloudy SCT080 SCT085 15.3 1.7 40% 76.2 0.0
08 09:35 S 17 16.09 Fair CLR 13.7 1.3 43% 76.23 0.0
08 09:15 S 6 16.09 Fair CLR 11.8 2.6 54% 76.25 0.0
08 08:55 Calm 16.09 Fair CLR 10.1 2 57% 76.28 0.0
08 08:35 Calm 16.09 Partly Cloudy SCT095 8 2.7 70% 76.28 0.0
08 08:15 Calm 16.09 Overcast OVC095 7.2 2.4 72% 76.28 0.0
08 07:55 Calm 16.09 Mostly Cloudy BKN095 7.3 2.3 9.9 2.6 71% 76.28 0.0
08 07:35 Calm 16.09 Fair CLR 5.6 2.4 80% 76.25 0.0
08 07:15 Calm 16.09 Partly Cloudy SCT085 5 2 81% 76.25 0.0
08 06:55 Calm 16.09 Mostly Cloudy BKN085 3.6 1.8 88% 76.25 0.0
08 06:35 Calm 16.09 Partly Cloudy SCT075 3 1 87% 76.23 0.0
08 06:15 Calm 16.09 Fair CLR 2.8 0.9 87% 76.2 0.0
08 05:55 Calm 16.09 Fair CLR 3.3 0.7 83% 76.2 0.0
08 05:35 SE 6 16.09 Fair CLR 3.2 1 86% 76.2 0.0
08 05:15 Calm 16.09 Fair CLR 4.2 0.5 77% 76.2 0.0
08 04:55 NE 9 16.09 Fair CLR 4.4 0.7 77% 2 76.17 0.0
08 04:35 NE 6 16.09 Fair CLR 4.9 0.9 76% 76.17 0.0
08 04:15 NE 11 16.09 Fair CLR 4.7 1.3 79% 2 76.17 0.0
08 03:55 E 6 16.09 Fair CLR 5.8 1.3 73% 76.17 0.0
08 03:35 Calm 16.09 Fair CLR 6.8 0.9 66% 76.15 0.0
08 03:15 Calm 16.09 Fair CLR 6.9 0.7 65% 76.15 0.0
08 02:55 N 7 16.09 Fair CLR 7.2 1.3 66% 6 76.17 0.0
08 02:35 N 6 16.09 Fair CLR 8.2 0.3 58% 76.17 0.0
08 02:15 Calm 16.09 Fair CLR 9.2 -0.2 52% 76.17 0.0
08 01:55 Calm 16.09 Fair CLR 9.8 -0.3 15.8 9.4 50% 76.17 0.0
08 01:35 N 7 16.09 Fair CLR 10.3 -0.4 48% 76.17 0.0
08 01:15 N 9 16.09 Fair CLR 10.7 -0.8 45% 76.15 0.0
08 00:55 N 7 16.09 Fair CLR 10.8 -0.8 45% 76.15 0.0
08 00:35 N 9 16.09 Fair CLR 11.7 -1.3 41% 76.15 0.0
08 00:15 N 19 16.09 Fair CLR 12.2 -1.3 39% 76.1 0.0
07 23:55 NW 20 G 35 16.09 Fair CLR 12.5 -1 40% 76.07 0.0
07 23:35 NW 24 G 31 16.09 Fair CLR 12.6 -0.8 40% 76.07 0.0
07 23:15 NW 15 16.09 Fair CLR 12.9 -0.9 39% 76.07 0.0
07 22:55 W 19 G 28 16.09 Fair CLR 13.1 -0.9 38% 76.05 0.0
07 22:35 NW 11 16.09 Fair CLR 13.2 -1.1 37% 76.02 0.0
07 22:15 NW 9 16.09 Fair CLR 13.5 -1.1 37% 76.02 0.0
07 21:55 NW 7 16.09 Fair CLR 14 -1.3 35% 76 0.0
07 21:35 NW 17 G 26 16.09 Fair CLR 14.2 -1.3 35% 75.97 0.0
07 21:15 NW 13 16.09 Fair CLR 14.7 -1.1 34% 75.95 0.0
07 20:55 NW 11 16.09 Partly Cloudy SCT090 14.7 -0.8 35% 75.95 0.0
07 20:35 W 9 16.09 Mostly Cloudy BKN090 15.1 -0.9 34% 75.92 0.0
07 20:15 W 11 16.09 Mostly Cloudy BKN080 15.5 -0.7 33% 75.9 0.0
07 19:55 NW 9 16.09 Overcast OVC080 15.9 -0.3 19.9 15.7 33% 75.87 0.0
07 19:35 NW 13 16.09 Mostly Cloudy BKN080 16.3 0 33% 75.84 0.0
07 19:15 W 17 16.09 Overcast SCT080 OVC090 16.7 -0.3 32% 75.84 0.0
07 18:55 W 22 16.09 Mostly Cloudy BKN090 17.1 -0.1 31% 75.84 0.0
07 18:35 W 22 16.09 Mostly Cloudy BKN090 17.3 -0.1 31% 75.82 0.0
07 18:15 W 11 16.09 Mostly Cloudy BKN080 16.8 -0.1 32% 75.79 0.0
07 17:55 NW 20 G 35 16.09 Mostly Cloudy BKN080 17.1 -0.6 30% 75.79 0.0
07 17:35 NW 15 16.09 Partly Cloudy SCT080 17.3 -0.6 30% 75.79 0.0
07 17:15 NW 28 G 37 16.09 Partly Cloudy SCT080 18.5 -0.4 28% 75.77 0.0
07 16:55 NW 28 G 37 16.09 Partly Cloudy SCT080 18.1 -0.1 29% 75.77 0.0
07 16:35 NW 13 16.09 Partly Cloudy SCT080 18.8 0 28% 75.77 0.0
07 16:15 W 28 G 35 16.09 Partly Cloudy SCT080 18.8 0.5 29% 75.77 0.0
07 15:55 NW 22 G 31 16.09 Partly Cloudy SCT080 18.9 0.7 30% 75.79 0.0
07 15:35 W 19 G 30 16.09 Fair CLR 19.4 0.2 28% 75.79 0.0
07 15:15 W 20 G 30 16.09 Fair CLR 19.6 0.2 27% 75.79 0.0
07 14:55 NW 15 16.09 Fair CLR 19.2 -0.6 26% 75.79 0.0
07 14:35 N 11 16.09 Fair CLR 18.8 -1 26% 75.79 0.0
07 14:15 SW 11 G 26 16.09 Fair CLR 18.4 -0.7 28% 75.79 0.0
07 13:55 W 24 16.09 Fair CLR 18.6 0.4 19 10.4 30% 75.82 0.0
07 13:35 W 15 G 28 16.09 Fair CLR 18.4 0.5 30% 75.84 0.0
07 13:15 NW 15 16.09 Fair CLR 17.6 -0.3 30% 75.87 0.0
07 12:55 W 19 G 26 16.09 Fair CLR 17.5 -0.6 29% 75.9 0.0
07 12:35 W 11 G 28 16.09 Fair CLR 17.1 -0.4 31% 75.92 0.0
07 12:15 NW 15 16.09 Fair CLR 16.9 -0.2 32% 75.95 0.0
07 11:55 W 7 16.09 Fair CLR 16.9 1 34% 75.95 0.0
07 11:35 E 7 16.09 Fair CLR 15.9 0.2 35% 75.97 0.0
07 11:15 N 11 16.09 Fair CLR 16 -0.3 33% 76 0.0
07 10:55 W 11 16.09 Fair CLR 15.5 -0.3 34% 76.02 0.0
07 10:35 Calm 16.09 Fair CLR 14.6 0.5 38% 76.05 0.0
07 10:15 N 11 16.09 Fair CLR 14 1.2 42% 76.07 0.0
07 09:55 Calm 16.09 Partly Cloudy SCT070 13 0.5 43% 76.1 0.0
07 09:35 N 7 16.09 Overcast OVC070 12.1 1.2 48% 76.12 0.0
07 09:15 W 6 16.09 Overcast OVC080 11.8 0.8 47% 76.15 0.0
07 08:55 Calm 16.09 Overcast SCT060 OVC080 11.3 1.3 51% 76.15 0.0
07 08:35 Calm 16.09 Overcast OVC060 10.8 1.6 53% 76.15 0.0
07 08:15 Calm 16.09 Overcast OVC060 10.7 2.1 56% 76.15 0.0
07 07:55 Calm 16.09 Overcast OVC060 10.3 2.1 11.8 9.8 57% 76.15 0.0
07 07:35 Calm 16.09 Overcast OVC060 10.2 1.9 57% 76.15 0.0
07 07:15 NE 6 16.09 Overcast OVC060 10.1 2.4 59% 76.12 0.0
07 06:55 Calm 16.09 Overcast OVC060 10.1 2.1 58% 76.1 0.0
07 06:35 NE 7 16.09 Overcast OVC060 9.9 2.4 60% 9 76.1 0.0
07 06:15 NE 6 16.09 Overcast OVC060 10 1.7 57% 76.07 0.0
07 05:55 N 9 16.09 Overcast OVC060 10.4 0.6 51% 76.05 0.0
07 05:35 Calm 16.09 Overcast OVC060 10.3 1.6 55% 76.07 0.0
07 05:15 N 6 16.09 Overcast OVC060 10.5 1.2 53% 76.07 0.0
07 04:55 N 9 16.09 Overcast OVC060 10.6 1.3 53% 76.05 0.0
07 04:35 N 11 16.09 Overcast OVC060 10.8 1.9 54% 76.05 0.0
07 04:15 N 6 16.09 Overcast OVC050 11 2 54% 76.05 0.0
07 03:55 N 13 16.09 Overcast OVC050 11.1 1.8 53% 76.05 0.0
07 03:15 N 11 16.09 Overcast SCT033 OVC050 11.4 4.1 61% 76.02 0.0
Date Time (edt) Wind (kph) Vis. (km) Weather Sky Cond. Air Dwpt Max. Min. Relative Humidity Wind Chill (°C) Heat Index (°C) altimeter (cm) sea level (mb) 1 hr 3 hr 6 hr
6 hour
Temperature (ºC) Pressure Precipitation (cm)